Albright, West Virginia
Current Conditions -  °F | °C
As of 5:45 PM on Monday 24 Nov 2014 (Local Time) from K2G4 Reporting Station
Scattered Clouds Scattered Clouds  
Wind Chill: 14°   Ceiling: Unl
Heat Index: 14°   Visibility: 10mi
Dew Point:   Wind: 9mph
Humidity: 41%   Direction: 250°WSW
Pressure: 29.67"   Gusts: 17mph
Location:  39.49°N, 79.64°W
Report Text: K2G4 242245Z AUTO 25008G15KT 10SM SCT060 SCT070 SCT080 14/01 A2967 RMK AO1
Loading
Personal Weather Stations






























Interactive Weather Map New forecast layout! Learn more

10-Day Weather Forecast

Advertisements
Track Severe Weather on mobile